createdAt,value
2023-04-30T00:00:20.275Z,59.46
2023-04-30T00:02:04.765Z,58.00
2023-04-30T00:03:38.315Z,59.23
2023-04-30T00:05:21.204Z,60.88
2023-04-30T00:06:51.060Z,63.05
2023-04-30T00:08:27.214Z,65.07
2023-04-30T00:09:51.590Z,63.92
2023-04-30T00:11:32.720Z,62.02
2023-04-30T00:13:07.257Z,60.20
2023-04-30T00:14:37.179Z,58.67
2023-04-30T00:16:00.826Z,58.39
2023-04-30T00:17:22.378Z,59.72
2023-04-30T00:18:47.311Z,61.56
2023-04-30T00:20:09.025Z,63.56
2023-04-30T00:21:31.060Z,64.93
2023-04-30T00:23:02.655Z,63.40
2023-04-30T00:24:24.335Z,61.62
2023-04-30T00:25:48.683Z,59.96
2023-04-30T00:27:10.239Z,58.30
2023-04-30T00:28:32.162Z,58.08
2023-04-30T00:29:56.798Z,59.55
2023-04-30T00:31:20.860Z,61.49
2023-04-30T00:32:50.232Z,63.69
2023-04-30T00:34:14.395Z,65.37
2023-04-30T00:35:41.870Z,64.10
2023-04-30T00:37:03.707Z,62.04
2023-04-30T00:38:25.041Z,60.46
2023-04-30T00:39:47.177Z,59.09
2023-04-30T00:41:10.695Z,58.01
2023-04-30T00:42:32.537Z,58.63
2023-04-30T00:43:54.439Z,60.25
2023-04-30T00:45:23.528Z,62.24
2023-04-30T00:46:47.802Z,64.49
2023-04-30T00:48:12.371Z,64.55
2023-04-30T00:49:34.263Z,62.85
2023-04-30T00:50:57.926Z,61.12
2023-04-30T00:52:21.895Z,59.85
2023-04-30T00:53:44.268Z,58.27
2023-04-30T00:55:05.502Z,57.86
2023-04-30T00:56:27.421Z,59.24
2023-04-30T00:57:49.252Z,60.99
2023-04-30T00:59:13.136Z,62.90
2023-04-30T01:00:47.124Z,65.21
2023-04-30T01:02:20.738Z,64.18
2023-04-30T01:03:57.021Z,62.09
2023-04-30T01:05:22.877Z,60.45
2023-04-30T01:06:47.474Z,58.37
2023-04-30T01:08:23.507Z,57.82
2023-04-30T01:09:57.271Z,59.27
2023-04-30T01:11:26.090Z,61.26
2023-04-30T01:12:57.728Z,63.03
2023-04-30T01:14:21.427Z,64.97
2023-04-30T01:15:45.673Z,64.25
2023-04-30T01:17:07.285Z,62.52
2023-04-30T01:18:30.126Z,60.80
2023-04-30T01:20:04.175Z,59.27
2023-04-30T01:21:30.720Z,58.05
2023-04-30T01:22:52.619Z,58.73
2023-04-30T01:24:13.840Z,60.37
2023-04-30T01:25:36.519Z,62.40
2023-04-30T01:27:07.716Z,64.80
2023-04-30T01:28:32.035Z,65.29
2023-04-30T01:29:56.235Z,63.45
2023-04-30T01:31:20.315Z,61.42
2023-04-30T01:32:42.591Z,60.05
2023-04-30T01:34:06.524Z,58.38
2023-04-30T01:35:30.738Z,57.31
2023-04-30T01:37:04.326Z,58.75
2023-04-30T01:38:26.332Z,60.59
2023-04-30T01:40:07.217Z,62.64
2023-04-30T01:41:43.852Z,65.27
2023-04-30T01:43:05.297Z,64.70
2023-04-30T01:44:26.952Z,62.88
2023-04-30T01:45:51.349Z,60.76
2023-04-30T01:47:24.256Z,58.89
2023-04-30T01:48:46.834Z,57.64
2023-04-30T01:50:12.884Z,58.27
2023-04-30T01:51:44.045Z,60.13
2023-04-30T01:53:17.638Z,61.90
2023-04-30T01:54:40.128Z,64.37
2023-04-30T01:56:01.769Z,65.11
2023-04-30T01:57:25.839Z,63.32
2023-04-30T01:58:47.652Z,60.65
2023-04-30T02:00:11.764Z,58.35
2023-04-30T02:01:39.119Z,57.06
2023-04-30T02:03:10.095Z,58.18
2023-04-30T02:04:39.849Z,59.91
2023-04-30T02:06:11.169Z,61.50
2023-04-30T02:07:38.020Z,63.85
2023-04-30T02:09:14.838Z,65.52
2023-04-30T02:10:44.022Z,63.44
2023-04-30T02:12:07.914Z,61.28
2023-04-30T02:13:29.907Z,59.45
2023-04-30T02:14:53.863Z,57.72
2023-04-30T02:16:15.458Z,57.58
2023-04-30T02:17:40.544Z,58.85
2023-04-30T02:19:02.297Z,60.89
2023-04-30T02:20:26.383Z,62.51
2023-04-30T02:22:00.119Z,64.60
2023-04-30T02:23:21.505Z,64.47
2023-04-30T02:24:45.638Z,62.47
2023-04-30T02:26:18.973Z,60.36
2023-04-30T02:27:41.356Z,58.26
2023-04-30T02:29:04.317Z,57.34
2023-04-30T02:30:37.313Z,58.61
2023-04-30T02:31:59.114Z,60.21
2023-04-30T02:33:25.257Z,62.25
2023-04-30T02:34:55.358Z,64.11
2023-04-30T02:36:17.122Z,64.78
2023-04-30T02:37:48.704Z,63.04
2023-04-30T02:39:12.182Z,60.48
2023-04-30T02:40:38.910Z,58.28
2023-04-30T02:42:12.287Z,57.32
2023-04-30T02:43:44.069Z,58.53
2023-04-30T02:45:07.618Z,60.05
2023-04-30T02:46:31.821Z,61.83
2023-04-30T02:48:02.622Z,64.28
2023-04-30T02:49:31.706Z,65.16
2023-04-30T02:51:05.187Z,63.47
2023-04-30T02:52:26.939Z,61.05
2023-04-30T02:54:00.425Z,59.24
2023-04-30T02:55:34.038Z,57.37
2023-04-30T02:56:55.795Z,57.73
2023-04-30T02:58:17.367Z,59.31
2023-04-30T02:59:53.483Z,61.11
2023-04-30T03:01:17.600Z,63.16
2023-04-30T03:02:42.958Z,65.23
2023-04-30T03:04:04.976Z,64.37
2023-04-30T03:05:34.450Z,62.21
2023-04-30T03:07:07.992Z,60.29
2023-04-30T03:08:29.846Z,57.84
2023-04-30T03:09:51.658Z,56.95
2023-04-30T03:11:24.656Z,57.91
2023-04-30T03:12:54.158Z,59.79
2023-04-30T03:14:15.644Z,61.61
2023-04-30T03:15:49.641Z,63.60
2023-04-30T03:17:11.734Z,64.87
2023-04-30T03:18:33.527Z,63.38
2023-04-30T03:19:55.425Z,61.11
2023-04-30T03:21:28.788Z,59.06
2023-04-30T03:23:02.662Z,57.10
2023-04-30T03:24:25.201Z,57.79
2023-04-30T03:25:47.716Z,59.36
2023-04-30T03:27:16.848Z,60.81
2023-04-30T03:28:39.309Z,62.66
2023-04-30T03:30:00.727Z,64.94
2023-04-30T03:31:24.726Z,64.41
2023-04-30T03:32:46.669Z,62.29
2023-04-30T03:34:08.136Z,60.07
2023-04-30T03:35:49.100Z,57.82
2023-04-30T03:37:12.739Z,57.10
2023-04-30T03:38:37.094Z,58.35
2023-04-30T03:40:00.725Z,59.66
2023-04-30T03:41:42.337Z,61.60
2023-04-30T03:43:03.652Z,63.51
2023-04-30T03:44:27.406Z,64.92
2023-04-30T03:46:09.131Z,63.17
2023-04-30T03:47:31.104Z,60.75
2023-04-30T03:48:55.169Z,58.33
2023-04-30T03:50:19.543Z,57.05
2023-04-30T03:51:49.150Z,57.80
2023-04-30T03:53:24.523Z,59.41
2023-04-30T03:54:53.718Z,61.18
2023-04-30T03:56:22.974Z,63.16
2023-04-30T03:57:54.887Z,65.01
2023-04-30T03:59:20.602Z,63.69
2023-04-30T04:00:50.190Z,60.98
2023-04-30T04:02:12.041Z,58.57
2023-04-30T04:03:46.278Z,56.95
2023-04-30T04:05:10.750Z,57.47
2023-04-30T04:06:47.724Z,59.23
2023-04-30T04:08:09.344Z,61.07
2023-04-30T04:09:33.353Z,62.72
2023-04-30T04:10:58.421Z,64.80
2023-04-30T04:12:19.831Z,64.28
2023-04-30T04:13:49.249Z,61.94
2023-04-30T04:15:24.981Z,59.21
2023-04-30T04:16:47.401Z,56.69
2023-04-30T04:18:20.378Z,56.69
2023-04-30T04:19:44.957Z,58.39
2023-04-30T04:21:08.606Z,59.95
2023-04-30T04:22:44.748Z,61.81
2023-04-30T04:24:08.602Z,63.68
2023-04-30T04:25:30.804Z,64.64
2023-04-30T04:26:59.956Z,62.81
2023-04-30T04:28:28.732Z,60.36
2023-04-30T04:29:58.350Z,57.39
2023-04-30T04:31:27.533Z,56.59
2023-04-30T04:33:00.214Z,57.60
2023-04-30T04:34:23.804Z,59.01
2023-04-30T04:36:05.415Z,60.69
2023-04-30T04:37:39.061Z,62.70
2023-04-30T04:39:23.956Z,64.54
2023-04-30T04:40:48.203Z,63.51
2023-04-30T04:42:19.894Z,60.58
2023-04-30T04:43:58.218Z,57.85
2023-04-30T04:45:21.642Z,56.35
2023-04-30T04:46:46.431Z,57.34
2023-04-30T04:48:10.511Z,58.70
2023-04-30T04:49:39.813Z,60.22
2023-04-30T04:51:12.708Z,62.03
2023-04-30T04:52:34.922Z,63.66
2023-04-30T04:53:56.736Z,64.29
2023-04-30T04:55:19.131Z,62.68
2023-04-30T04:56:46.532Z,59.80
2023-04-30T04:58:09.935Z,57.23
2023-04-30T04:59:34.197Z,56.51
2023-04-30T05:00:57.421Z,57.28
2023-04-30T05:02:23.628Z,58.72
2023-04-30T05:03:56.570Z,60.06
2023-04-30T05:05:25.545Z,61.61
2023-04-30T05:06:47.718Z,63.09
2023-04-30T05:08:12.001Z,64.57
2023-04-30T05:09:34.010Z,63.32
2023-04-30T05:11:05.864Z,60.39
2023-04-30T05:12:27.711Z,57.38
2023-04-30T05:13:52.093Z,56.39
2023-04-30T05:15:21.363Z,57.34
2023-04-30T05:16:50.546Z,58.81
2023-04-30T05:18:14.948Z,60.44
2023-04-30T05:19:37.390Z,61.62
2023-04-30T05:21:10.748Z,62.93
2023-04-30T05:22:35.058Z,64.14
2023-04-30T05:24:04.612Z,62.18
2023-04-30T05:25:28.641Z,59.15
2023-04-30T05:26:50.656Z,56.90
2023-04-30T05:28:15.232Z,56.69
2023-04-30T05:29:37.167Z,57.89
2023-04-30T05:31:21.780Z,59.09
2023-04-30T05:32:51.977Z,60.54
2023-04-30T05:34:25.123Z,61.77
2023-04-30T05:35:47.280Z,62.28
2023-04-30T05:37:23.648Z,63.52
2023-04-30T05:39:05.627Z,63.49
2023-04-30T05:40:46.647Z,59.68
2023-04-30T05:42:08.397Z,56.82
2023-04-30T05:43:32.652Z,55.63
2023-04-30T05:45:01.604Z,56.26
2023-04-30T05:46:31.019Z,57.25
2023-04-30T05:48:02.695Z,58.56
2023-04-30T05:49:33.676Z,60.04
2023-04-30T05:50:56.804Z,61.75
2023-04-30T05:52:30.133Z,62.33
2023-04-30T05:53:51.794Z,62.40
2023-04-30T05:55:13.006Z,63.76
2023-04-30T05:56:34.966Z,64.08
2023-04-30T05:57:56.811Z,62.17
2023-04-30T05:59:25.660Z,58.40
2023-04-30T06:01:18.928Z,54.75
2023-04-30T06:02:43.475Z,54.99
2023-04-30T06:04:12.412Z,55.88
2023-04-30T06:05:42.264Z,56.87
2023-04-30T06:07:03.562Z,58.17
2023-04-30T06:08:44.612Z,59.21
2023-04-30T06:10:09.343Z,59.45
2023-04-30T06:11:40.411Z,60.33
2023-04-30T06:13:05.721Z,60.78
2023-04-30T06:14:35.076Z,61.79
2023-04-30T06:15:56.780Z,62.25
2023-04-30T06:17:20.789Z,63.15
2023-04-30T06:18:43.373Z,63.56
2023-04-30T06:20:28.203Z,60.47
2023-04-30T06:21:52.649Z,57.33
2023-04-30T06:23:14.170Z,55.29
2023-04-30T06:24:38.307Z,55.39
2023-04-30T06:26:14.913Z,55.55
2023-04-30T06:27:37.085Z,56.51
2023-04-30T06:29:05.991Z,56.88
2023-04-30T06:30:28.155Z,57.96
2023-04-30T06:32:04.320Z,59.64
2023-04-30T06:33:26.798Z,58.73
2023-04-30T06:34:48.451Z,58.81
2023-04-30T06:36:10.041Z,59.49
2023-04-30T06:37:38.144Z,59.98
2023-04-30T06:39:11.687Z,60.58
2023-04-30T06:40:39.053Z,61.11
2023-04-30T06:42:01.038Z,61.71
2023-04-30T06:43:42.364Z,61.07
2023-04-30T06:45:03.893Z,61.04
2023-04-30T06:46:27.825Z,61.36
2023-04-30T06:48:03.676Z,62.03
2023-04-30T06:49:32.511Z,61.28
2023-04-30T06:51:05.919Z,61.56
2023-04-30T06:52:27.882Z,61.51
2023-04-30T06:54:00.916Z,60.75
2023-04-30T06:55:24.729Z,60.35
2023-04-30T06:56:57.918Z,60.60
2023-04-30T06:58:33.778Z,61.08
2023-04-30T07:00:08.332Z,60.71
2023-04-30T07:01:29.994Z,60.69
2023-04-30T07:02:56.345Z,60.80
2023-04-30T07:04:25.380Z,60.84
2023-04-30T07:05:47.485Z,60.91
2023-04-30T07:07:22.545Z,60.96
2023-04-30T07:08:47.096Z,60.12
2023-04-30T07:10:27.615Z,60.21
2023-04-30T07:11:51.832Z,60.45
2023-04-30T07:13:13.461Z,60.55
2023-04-30T07:14:47.094Z,60.74
2023-04-30T07:16:36.171Z,60.69
2023-04-30T07:18:05.403Z,61.28
2023-04-30T07:19:41.032Z,60.69
2023-04-30T07:21:02.408Z,60.56
2023-04-30T07:22:24.108Z,60.33
2023-04-30T07:23:57.723Z,59.76
2023-04-30T07:25:33.388Z,59.81
2023-04-30T07:27:07.422Z,59.74
2023-04-30T07:28:40.872Z,59.01
2023-04-30T07:30:13.919Z,59.14
2023-04-30T07:31:47.705Z,58.71
2023-04-30T07:33:11.589Z,58.50
2023-04-30T07:34:56.880Z,58.81
2023-04-30T07:36:23.146Z,58.13
2023-04-30T07:37:47.899Z,58.12
2023-04-30T07:39:21.206Z,57.80
2023-04-30T07:41:02.249Z,58.16
2023-04-30T07:42:33.668Z,57.73
2023-04-30T07:44:18.752Z,57.32
2023-04-30T07:45:54.893Z,57.92
2023-04-30T07:47:20.812Z,57.83
2023-04-30T07:48:54.487Z,57.41
2023-04-30T07:50:35.171Z,56.50
2023-04-30T07:52:15.736Z,55.19
2023-04-30T07:53:49.578Z,54.67
2023-04-30T07:55:11.416Z,55.46
2023-04-30T07:56:42.890Z,55.61
2023-04-30T07:58:06.569Z,55.97
2023-04-30T07:59:50.393Z,56.33
2023-04-30T08:01:23.640Z,54.58
2023-04-30T08:03:00.397Z,54.47
2023-04-30T08:04:22.389Z,54.94
2023-04-30T08:05:56.220Z,54.44
2023-04-30T08:07:25.459Z,55.20
2023-04-30T08:08:59.049Z,55.30
2023-04-30T08:10:44.036Z,55.32
2023-04-30T08:12:05.617Z,54.21
2023-04-30T08:13:39.184Z,53.01
2023-04-30T08:15:33.094Z,53.30
2023-04-30T08:17:18.023Z,52.82
2023-04-30T08:18:44.933Z,52.50
2023-04-30T08:22:14.419Z,51.32
2023-04-30T08:23:43.446Z,52.83
2023-04-30T08:25:07.462Z,52.65
2023-04-30T08:26:31.420Z,52.73
2023-04-30T08:27:56.534Z,53.62
2023-04-30T08:29:30.011Z,52.40
2023-04-30T08:31:05.699Z,51.72
2023-04-30T08:32:46.969Z,52.41
2023-04-30T08:34:08.563Z,51.81
2023-04-30T08:35:32.506Z,51.82
2023-04-30T08:36:57.473Z,51.37
2023-04-30T08:38:31.644Z,51.21
2023-04-30T08:40:19.107Z,51.96
2023-04-30T08:41:55.838Z,52.29
2023-04-30T08:43:17.429Z,52.02
2023-04-30T08:44:47.077Z,51.64
2023-04-30T08:46:32.518Z,51.74
2023-04-30T08:48:10.793Z,51.47
2023-04-30T08:49:51.701Z,49.49
2023-04-30T08:51:15.511Z,49.82
2023-04-30T08:52:40.090Z,49.68
2023-04-30T08:54:16.441Z,49.74
2023-04-30T08:55:38.692Z,48.38
2023-04-30T08:57:12.117Z,48.26
2023-04-30T08:58:45.732Z,49.01
2023-04-30T09:00:30.662Z,49.53
2023-04-30T09:02:07.386Z,50.16
2023-04-30T09:03:47.434Z,49.59
2023-04-30T09:05:24.217Z,48.40
2023-04-30T09:07:09.694Z,47.94
2023-04-30T09:08:59.621Z,45.75
2023-04-30T09:10:53.592Z,45.27
2023-04-30T09:12:26.729Z,45.67
2023-04-30T09:14:13.277Z,45.66
2023-04-30T09:15:47.661Z,46.64
2023-04-30T09:17:28.159Z,46.83
2023-04-30T09:19:08.697Z,45.80
2023-04-30T09:20:32.895Z,45.55
2023-04-30T09:22:17.725Z,45.37
2023-04-30T09:23:51.446Z,44.56
2023-04-30T09:25:13.211Z,45.79
2023-04-30T09:26:37.396Z,44.02
2023-04-30T09:28:06.257Z,42.93
2023-04-30T09:29:37.758Z,43.87
2023-04-30T09:31:11.260Z,43.85
2023-04-30T09:32:35.524Z,43.45
2023-04-30T09:34:05.001Z,44.15
2023-04-30T09:35:29.325Z,43.28
2023-04-30T09:37:07.374Z,43.59
2023-04-30T09:38:43.259Z,41.68
2023-04-30T09:40:04.744Z,41.04
2023-04-30T09:41:28.764Z,40.27
2023-04-30T09:43:05.858Z,40.30
2023-04-30T09:44:40.232Z,41.16
2023-04-30T09:46:11.965Z,41.63
2023-04-30T09:47:48.017Z,42.25
2023-04-30T09:49:28.321Z,41.96
2023-04-30T09:50:59.795Z,39.19
2023-04-30T09:52:21.193Z,40.51
2023-04-30T09:53:57.446Z,41.54
2023-04-30T09:55:24.004Z,41.26
2023-04-30T09:56:46.350Z,41.11
2023-04-30T09:58:07.935Z,40.86
2023-04-30T09:59:44.542Z,40.40
2023-04-30T10:01:18.503Z,39.45
2023-04-30T10:02:42.977Z,39.05
2023-04-30T10:04:04.654Z,39.81
2023-04-30T10:05:28.628Z,39.61
2023-04-30T10:06:53.000Z,39.69
2023-04-30T10:08:14.245Z,39.31
2023-04-30T10:09:36.837Z,40.87
2023-04-30T10:10:58.379Z,40.92
2023-04-30T10:12:20.394Z,41.04
2023-04-30T10:13:42.443Z,40.86
2023-04-30T10:15:06.567Z,41.81
2023-04-30T10:16:47.344Z,42.15
2023-04-30T10:18:16.424Z,42.42
2023-04-30T10:19:47.725Z,42.64
2023-04-30T10:21:12.041Z,43.59
2023-04-30T10:22:38.556Z,42.26
2023-04-30T10:24:02.572Z,41.16
2023-04-30T10:25:53.007Z,40.61
2023-04-30T10:27:33.337Z,39.49
2023-04-30T10:28:59.009Z,39.31
2023-04-30T10:30:22.956Z,39.37
2023-04-30T10:31:59.148Z,39.79
2023-04-30T10:33:30.301Z,40.43
2023-04-30T10:35:06.246Z,40.50
2023-04-30T10:36:47.191Z,39.80
2023-04-30T10:38:11.063Z,39.09
2023-04-30T10:39:35.096Z,39.30
2023-04-30T10:41:10.750Z,39.39
2023-04-30T10:42:32.750Z,39.72
2023-04-30T10:43:54.674Z,39.53
2023-04-30T10:45:20.923Z,39.76
2023-04-30T10:46:43.367Z,39.55
2023-04-30T10:48:07.426Z,39.22
2023-04-30T10:49:31.738Z,37.30
2023-04-30T10:51:05.552Z,36.69
2023-04-30T10:52:39.206Z,36.68
2023-04-30T10:54:01.002Z,35.85
2023-04-30T10:55:27.823Z,35.41
2023-04-30T10:56:49.676Z,36.11
2023-04-30T10:58:15.855Z,36.12
2023-04-30T10:59:57.348Z,35.55
2023-04-30T11:01:19.054Z,36.44
2023-04-30T11:02:49.488Z,36.41
2023-04-30T11:04:11.014Z,35.89
2023-04-30T11:05:32.886Z,35.23
2023-04-30T11:06:54.545Z,35.59
2023-04-30T11:08:23.644Z,36.00
2023-04-30T11:09:57.832Z,36.10
2023-04-30T11:11:22.122Z,36.39
2023-04-30T11:12:44.446Z,36.82
2023-04-30T11:14:06.004Z,36.76
2023-04-30T11:15:27.947Z,36.02
2023-04-30T11:16:52.427Z,35.59
2023-04-30T11:18:16.337Z,36.82
2023-04-30T11:19:38.567Z,37.49
2023-04-30T11:21:09.541Z,36.91
2023-04-30T11:22:35.888Z,36.57
2023-04-30T11:23:57.726Z,36.29
2023-04-30T11:25:19.155Z,36.12
2023-04-30T11:26:41.423Z,36.38
2023-04-30T11:28:03.128Z,37.95
2023-04-30T11:29:24.558Z,37.69
2023-04-30T11:30:46.397Z,37.42
2023-04-30T11:32:07.995Z,36.61
2023-04-30T11:33:30.086Z,36.42
2023-04-30T11:34:51.910Z,36.53
2023-04-30T11:36:13.407Z,35.35
2023-04-30T11:37:35.106Z,34.12
2023-04-30T11:38:57.134Z,34.14
2023-04-30T11:40:30.666Z,35.04
2023-04-30T11:41:55.040Z,35.21
2023-04-30T11:43:16.389Z,35.95
2023-04-30T11:44:38.767Z,35.55
2023-04-30T11:46:09.726Z,36.07
2023-04-30T11:47:39.406Z,35.39
2023-04-30T11:49:00.917Z,35.83
2023-04-30T11:50:29.987Z,35.87
2023-04-30T11:51:54.853Z,35.87
2023-04-30T11:53:28.118Z,35.60
2023-04-30T11:55:01.824Z,35.84
2023-04-30T11:56:33.141Z,35.22
2023-04-30T11:58:05.876Z,34.86
2023-04-30T11:59:27.445Z,36.11
2023-04-30T12:00:52.104Z,34.94
2023-04-30T12:02:25.693Z,33.91
2023-04-30T12:03:50.579Z,33.75
2023-04-30T12:05:17.359Z,33.55
2023-04-30T12:06:39.808Z,34.01
2023-04-30T12:08:12.971Z,33.91
2023-04-30T12:09:48.816Z,33.50
2023-04-30T12:11:10.403Z,34.06
2023-04-30T12:12:32.242Z,34.48
2023-04-30T12:14:22.532Z,33.35
2023-04-30T12:15:44.560Z,33.87
2023-04-30T12:17:06.236Z,34.31
2023-04-30T12:18:27.975Z,32.84
2023-04-30T12:19:52.214Z,32.87
2023-04-30T12:21:15.720Z,33.16
2023-04-30T12:22:45.171Z,32.42
2023-04-30T12:24:07.248Z,32.82
2023-04-30T12:25:31.238Z,32.92
2023-04-30T12:26:53.271Z,33.11
2023-04-30T12:28:17.195Z,33.62
2023-04-30T12:29:50.931Z,33.17
2023-04-30T12:31:20.338Z,34.22
2023-04-30T12:32:43.062Z,33.62
2023-04-30T12:34:04.696Z,33.70
2023-04-30T12:35:28.396Z,33.40
2023-04-30T12:36:50.140Z,32.67
2023-04-30T12:38:23.562Z,32.77
2023-04-30T12:39:48.534Z,33.18
2023-04-30T12:41:19.225Z,33.43
2023-04-30T12:42:55.631Z,32.73
2023-04-30T12:44:16.953Z,32.78
2023-04-30T12:45:40.976Z,32.72
2023-04-30T12:47:14.563Z,32.40
2023-04-30T12:48:44.055Z,31.99
2023-04-30T12:50:07.732Z,32.33
2023-04-30T12:51:30.127Z,32.46
2023-04-30T12:53:13.537Z,34.01
2023-04-30T12:54:38.076Z,32.88
2023-04-30T12:56:08.099Z,31.74
2023-04-30T12:57:32.126Z,31.43
2023-04-30T12:58:56.998Z,31.62
2023-04-30T13:00:18.595Z,31.73
2023-04-30T13:01:41.003Z,31.69
2023-04-30T13:03:02.904Z,31.29
2023-04-30T13:04:35.478Z,29.47
2023-04-30T13:06:13.972Z,28.25
2023-04-30T13:07:49.907Z,28.12
2023-04-30T13:09:13.409Z,27.74
2023-04-30T13:10:54.876Z,28.68
2023-04-30T13:12:16.717Z,28.55
2023-04-30T13:13:40.896Z,28.68
2023-04-30T13:15:14.058Z,28.87
2023-04-30T13:16:38.029Z,29.10
2023-04-30T13:18:12.152Z,28.95
2023-04-30T13:19:36.258Z,28.69
2023-04-30T13:21:00.904Z,28.41
2023-04-30T13:22:34.555Z,29.10
2023-04-30T13:24:03.871Z,29.39
2023-04-30T13:25:39.802Z,29.60
2023-04-30T13:27:04.174Z,28.98
2023-04-30T13:28:28.311Z,29.59
2023-04-30T13:29:54.988Z,29.34
2023-04-30T13:31:19.289Z,28.96
2023-04-30T13:32:48.747Z,28.70
2023-04-30T13:34:25.016Z,28.97
2023-04-30T13:35:47.736Z,29.30
2023-04-30T13:37:09.340Z,28.89
2023-04-30T13:38:33.208Z,27.93
2023-04-30T13:40:03.666Z,28.54
2023-04-30T13:41:32.232Z,28.27
2023-04-30T13:43:03.566Z,27.54
2023-04-30T13:44:36.805Z,28.14
2023-04-30T13:45:58.949Z,27.90
2023-04-30T13:47:21.406Z,27.88
2023-04-30T13:48:55.005Z,27.38
2023-04-30T13:50:18.597Z,27.96
2023-04-30T13:51:40.841Z,27.86
2023-04-30T13:53:02.425Z,28.00
2023-04-30T13:54:38.240Z,28.59
2023-04-30T13:56:00.310Z,27.62
2023-04-30T13:57:21.864Z,27.91
2023-04-30T13:58:46.611Z,28.34
2023-04-30T14:00:13.351Z,28.22
2023-04-30T14:01:35.246Z,27.53
2023-04-30T14:02:57.353Z,28.32
2023-04-30T14:04:38.185Z,26.96
2023-04-30T14:06:00.006Z,26.89
2023-04-30T14:07:33.584Z,26.39
2023-04-30T14:08:55.608Z,25.72
2023-04-30T14:10:16.961Z,24.73
2023-04-30T14:11:51.170Z,25.36
2023-04-30T14:13:31.879Z,25.38
2023-04-30T14:14:56.485Z,24.14
2023-04-30T14:16:37.532Z,24.70
2023-04-30T14:18:22.476Z,25.14
2023-04-30T14:19:49.483Z,24.73
2023-04-30T14:21:11.576Z,24.89
2023-04-30T14:22:46.376Z,25.21
2023-04-30T14:24:08.658Z,24.87
2023-04-30T14:25:54.068Z,24.65
2023-04-30T14:27:15.596Z,25.10
2023-04-30T14:28:37.767Z,24.53
2023-04-30T14:29:59.433Z,24.60
2023-04-30T14:31:28.725Z,25.23
2023-04-30T14:33:04.375Z,26.20
2023-04-30T14:34:28.030Z,25.52
2023-04-30T14:36:04.299Z,24.33
2023-04-30T14:37:27.809Z,24.78
2023-04-30T14:38:49.743Z,24.57
2023-04-30T14:40:11.405Z,24.63
2023-04-30T14:41:33.268Z,24.38
2023-04-30T14:42:57.349Z,24.33
2023-04-30T14:44:30.774Z,23.97
2023-04-30T14:45:53.290Z,23.59
2023-04-30T14:47:17.301Z,23.41
2023-04-30T14:48:44.130Z,23.73
2023-04-30T14:50:13.263Z,23.92
2023-04-30T14:51:42.655Z,23.76
2023-04-30T14:53:16.101Z,23.57
2023-04-30T14:54:38.129Z,24.14
2023-04-30T14:55:59.842Z,24.21
2023-04-30T14:57:23.468Z,24.65
2023-04-30T14:58:48.152Z,24.13
2023-04-30T15:00:19.092Z,24.29
2023-04-30T15:01:43.130Z,23.99
2023-04-30T15:03:04.699Z,24.10
2023-04-30T15:04:33.981Z,24.35
2023-04-30T15:05:55.999Z,24.04
2023-04-30T15:07:29.220Z,24.28
2023-04-30T15:08:53.389Z,24.53
2023-04-30T15:10:14.747Z,24.58
2023-04-30T15:11:38.577Z,24.23
2023-04-30T15:13:02.599Z,24.37
2023-04-30T15:14:31.958Z,24.38
2023-04-30T15:16:05.681Z,23.84
2023-04-30T15:17:30.231Z,23.38
2023-04-30T15:18:52.338Z,23.52
2023-04-30T15:20:13.704Z,23.95
2023-04-30T15:21:35.595Z,23.67
2023-04-30T15:23:00.113Z,23.78
2023-04-30T15:24:26.189Z,23.98
2023-04-30T15:25:50.882Z,23.73
2023-04-30T15:27:24.160Z,23.75
2023-04-30T15:28:48.441Z,23.47
2023-04-30T15:30:10.337Z,23.41
2023-04-30T15:31:32.909Z,23.19
2023-04-30T15:32:54.948Z,23.00
2023-04-30T15:34:16.545Z,22.21
2023-04-30T15:35:38.649Z,21.72
2023-04-30T15:37:00.385Z,21.88
2023-04-30T15:38:31.621Z,21.88
2023-04-30T15:39:53.587Z,22.11
2023-04-30T15:41:22.896Z,22.77
2023-04-30T15:42:45.058Z,23.38
2023-04-30T15:44:09.254Z,23.52
2023-04-30T15:45:43.168Z,23.43
2023-04-30T15:47:04.837Z,23.48
2023-04-30T15:48:26.555Z,23.60
2023-04-30T15:49:57.990Z,23.60
2023-04-30T15:51:19.566Z,23.83
2023-04-30T15:52:43.688Z,24.02
2023-04-30T15:54:07.355Z,24.53
2023-04-30T15:55:29.368Z,24.67
2023-04-30T15:56:51.720Z,24.49
2023-04-30T15:58:13.212Z,24.46
2023-04-30T15:59:34.793Z,24.83
2023-04-30T16:00:59.014Z,25.03
2023-04-30T16:02:23.238Z,24.51
2023-04-30T16:03:45.206Z,24.71
2023-04-30T16:05:07.156Z,24.75
2023-04-30T16:06:29.848Z,25.24
2023-04-30T16:07:52.048Z,25.26
2023-04-30T16:09:13.512Z,25.40
2023-04-30T16:10:49.158Z,25.88
2023-04-30T16:12:11.054Z,26.08
2023-04-30T16:13:40.323Z,26.37
2023-04-30T16:15:04.619Z,26.09
2023-04-30T16:16:27.874Z,26.50
2023-04-30T16:17:52.793Z,26.07
2023-04-30T16:19:21.448Z,26.19
2023-04-30T16:20:43.382Z,26.13
2023-04-30T16:22:12.308Z,26.07
2023-04-30T16:23:36.369Z,25.89
2023-04-30T16:25:10.109Z,25.79
2023-04-30T16:26:43.849Z,25.67
2023-04-30T16:28:08.166Z,25.97
2023-04-30T16:29:41.946Z,26.94
2023-04-30T16:31:06.107Z,27.56
2023-04-30T16:32:50.647Z,28.25
2023-04-30T16:34:19.823Z,28.33
2023-04-30T16:35:51.751Z,28.73
2023-04-30T16:37:13.773Z,29.75
2023-04-30T16:38:35.537Z,30.47
2023-04-30T16:39:57.692Z,31.42
2023-04-30T16:41:21.623Z,31.87
2023-04-30T16:42:44.014Z,32.53
2023-04-30T16:44:13.222Z,32.90
2023-04-30T16:45:37.484Z,33.48
2023-04-30T16:47:02.638Z,33.44
2023-04-30T16:48:24.162Z,33.63
2023-04-30T16:49:48.500Z,33.93
2023-04-30T16:51:12.310Z,34.25
2023-04-30T16:52:34.170Z,34.83
2023-04-30T16:53:56.136Z,35.40
2023-04-30T16:55:27.428Z,36.06
2023-04-30T16:56:49.426Z,36.18
2023-04-30T16:58:11.179Z,36.27
2023-04-30T16:59:32.904Z,36.71
2023-04-30T17:01:01.950Z,36.94
2023-04-30T17:02:26.010Z,37.38
2023-04-30T17:03:50.748Z,37.23
2023-04-30T17:05:12.568Z,37.74
2023-04-30T17:06:41.702Z,37.64
2023-04-30T17:08:06.067Z,37.87
2023-04-30T17:09:30.350Z,38.02
2023-04-30T17:10:56.734Z,38.47
2023-04-30T17:12:18.606Z,39.18
2023-04-30T17:13:54.720Z,38.95
2023-04-30T17:15:19.080Z,39.06
2023-04-30T17:16:43.802Z,39.12
2023-04-30T17:18:15.205Z,38.85
2023-04-30T17:19:36.978Z,39.28
2023-04-30T17:20:58.426Z,39.15
2023-04-30T17:22:22.056Z,39.10
2023-04-30T17:23:44.128Z,39.21
2023-04-30T17:25:06.061Z,39.36
2023-04-30T17:26:27.540Z,39.65
2023-04-30T17:27:56.720Z,40.07
2023-04-30T17:29:19.707Z,40.26
2023-04-30T17:30:44.594Z,40.60
2023-04-30T17:32:11.029Z,40.70
2023-04-30T17:33:34.737Z,40.96
2023-04-30T17:34:57.798Z,41.07
2023-04-30T17:36:31.441Z,41.02
2023-04-30T17:37:53.639Z,41.43
2023-04-30T17:39:15.108Z,41.75
2023-04-30T17:40:39.736Z,42.35
2023-04-30T17:42:01.505Z,42.10
2023-04-30T17:43:23.002Z,42.41
2023-04-30T17:44:44.931Z,42.51
2023-04-30T17:46:06.837Z,42.67
2023-04-30T17:47:32.303Z,43.11
2023-04-30T17:48:54.095Z,43.39
2023-04-30T17:50:15.858Z,43.50
2023-04-30T17:51:37.653Z,43.17
2023-04-30T17:52:59.817Z,43.28
2023-04-30T17:54:21.241Z,44.08
2023-04-30T17:55:43.510Z,43.92
2023-04-30T17:57:12.473Z,44.06
2023-04-30T17:58:49.599Z,44.69
2023-04-30T18:00:10.968Z,45.13
2023-04-30T18:01:37.586Z,45.33
2023-04-30T18:02:59.411Z,44.96
2023-04-30T18:04:21.169Z,45.15
2023-04-30T18:05:43.097Z,45.90
2023-04-30T18:07:05.154Z,46.05
2023-04-30T18:08:28.624Z,45.54
2023-04-30T18:09:52.543Z,45.90
2023-04-30T18:11:16.703Z,46.64
2023-04-30T18:12:41.238Z,46.31
2023-04-30T18:14:04.702Z,47.11
2023-04-30T18:15:27.644Z,47.48
2023-04-30T18:16:56.963Z,47.67
2023-04-30T18:18:18.560Z,47.87
2023-04-30T18:19:44.319Z,47.48
2023-04-30T18:21:08.589Z,47.33
2023-04-30T18:22:30.589Z,48.35
2023-04-30T18:23:52.794Z,48.09
2023-04-30T18:25:14.351Z,48.19
2023-04-30T18:26:36.896Z,48.66
2023-04-30T18:27:59.654Z,49.29
2023-04-30T18:29:23.672Z,48.38
2023-04-30T18:30:45.451Z,47.87
2023-04-30T18:32:07.137Z,48.43
2023-04-30T18:33:31.783Z,48.41
2023-04-30T18:34:53.851Z,48.20
2023-04-30T18:36:28.170Z,48.84
2023-04-30T18:37:50.232Z,49.39
2023-04-30T18:39:12.385Z,49.39
2023-04-30T18:40:34.502Z,49.24
2023-04-30T18:41:56.643Z,48.64
2023-04-30T18:43:25.664Z,49.08
2023-04-30T18:45:02.805Z,49.28
2023-04-30T18:46:24.879Z,49.91
2023-04-30T18:47:54.824Z,49.96
2023-04-30T18:49:21.230Z,49.97